sensor_id;sensor_type;location;lat;lon;timestamp;pressure;altitude;pressure_sealevel;temperature;humidity
2294;BME280;1155;42.644;23.264;2023-04-23T00:01:51;60126.22;;;-140.67;100.00
2294;BME280;1155;42.644;23.264;2023-04-23T00:04:21;60107.78;;;-140.67;100.00
2294;BME280;1155;42.644;23.264;2023-04-23T00:06:49;60159.00;;;-140.67;100.00
2294;BME280;1155;42.644;23.264;2023-04-23T00:09:22;60142.59;;;-140.67;100.00
2294;BME280;1155;42.644;23.264;2023-04-23T00:11:49;60126.22;;;-140.67;100.00
2294;BME280;1155;42.644;23.264;2023-04-23T00:14:16;60138.50;;;-140.67;100.00
2294;BME280;1155;42.644;23.264;2023-04-23T00:16:43;60146.72;;;-140.67;100.00
2294;BME280;1155;42.644;23.264;2023-04-23T00:19:10;60142.59;;;-140.67;100.00
2294;BME280;1155;42.644;23.264;2023-04-23T00:21:37;60148.75;;;-140.67;100.00
2294;BME280;1155;42.644;23.264;2023-04-23T00:24:05;60140.56;;;-140.67;100.00
2294;BME280;1155;42.644;23.264;2023-04-23T00:26:33;60132.38;;;-140.67;100.00
2294;BME280;1155;42.644;23.264;2023-04-23T00:29:00;60144.66;;;-140.67;100.00
2294;BME280;1155;42.644;23.264;2023-04-23T00:31:27;60152.84;;;-140.67;100.00
2294;BME280;1155;42.644;23.264;2023-04-23T00:33:54;60159.00;;;-140.67;100.00
2294;BME280;1155;42.644;23.264;2023-04-23T00:36:21;60150.81;;;-140.67;100.00
2294;BME280;1155;42.644;23.264;2023-04-23T00:38:48;60122.13;;;-140.67;100.00
2294;BME280;1155;42.644;23.264;2023-04-23T00:41:15;60134.41;;;-140.67;100.00
2294;BME280;1155;42.644;23.264;2023-04-23T00:43:45;60138.50;;;-140.67;100.00
2294;BME280;1155;42.644;23.264;2023-04-23T00:46:13;60132.38;;;-140.67;100.00
2294;BME280;1155;42.644;23.264;2023-04-23T00:48:41;60136.47;;;-140.67;100.00
2294;BME280;1155;42.644;23.264;2023-04-23T00:51:10;60130.31;;;-140.67;100.00
2294;BME280;1155;42.644;23.264;2023-04-23T00:53:37;60122.13;;;-140.67;100.00
2294;BME280;1155;42.644;23.264;2023-04-23T00:56:04;60120.09;;;-140.67;100.00
2294;BME280;1155;42.644;23.264;2023-04-23T00:58:33;60154.91;;;-140.67;100.00
2294;BME280;1155;42.644;23.264;2023-04-23T01:01:01;60161.03;;;-140.67;100.00
2294;BME280;1155;42.644;23.264;2023-04-23T01:03:29;60144.66;;;-140.67;100.00
2294;BME280;1155;42.644;23.264;2023-04-23T01:05:57;60134.41;;;-140.67;100.00
2294;BME280;1155;42.644;23.264;2023-04-23T01:08:24;60142.59;;;-140.67;100.00
2294;BME280;1155;42.644;23.264;2023-04-23T01:10:52;60134.41;;;-140.67;100.00
2294;BME280;1155;42.644;23.264;2023-04-23T01:13:19;60152.84;;;-140.67;100.00
2294;BME280;1155;42.644;23.264;2023-04-23T01:15:46;60169.22;;;-140.67;100.00
2294;BME280;1155;42.644;23.264;2023-04-23T01:18:14;60144.66;;;-140.67;100.00
2294;BME280;1155;42.644;23.264;2023-04-23T01:20:44;60159.00;;;-140.67;100.00
2294;BME280;1155;42.644;23.264;2023-04-23T01:23:12;60142.59;;;-140.67;100.00
2294;BME280;1155;42.644;23.264;2023-04-23T01:25:39;60130.31;;;-140.67;100.00
2294;BME280;1155;42.644;23.264;2023-04-23T01:28:06;60122.13;;;-140.67;100.00
2294;BME280;1155;42.644;23.264;2023-04-23T01:30:34;60122.13;;;-140.67;100.00
2294;BME280;1155;42.644;23.264;2023-04-23T01:33:02;60161.03;;;-140.67;100.00
2294;BME280;1155;42.644;23.264;2023-04-23T01:35:30;60134.41;;;-140.67;100.00
2294;BME280;1155;42.644;23.264;2023-04-23T01:37:58;60154.91;;;-140.67;100.00
2294;BME280;1155;42.644;23.264;2023-04-23T01:40:29;60134.41;;;-140.67;100.00
2294;BME280;1155;42.644;23.264;2023-04-23T01:42:56;60144.66;;;-140.67;100.00
2294;BME280;1155;42.644;23.264;2023-04-23T01:45:24;60130.31;;;-140.67;100.00
2294;BME280;1155;42.644;23.264;2023-04-23T01:47:50;60132.38;;;-140.67;100.00
2294;BME280;1155;42.644;23.264;2023-04-23T01:50:17;60150.81;;;-140.67;100.00
2294;BME280;1155;42.644;23.264;2023-04-23T01:52:46;60142.59;;;-140.67;100.00
2294;BME280;1155;42.644;23.264;2023-04-23T01:55:12;60118.03;;;-140.67;100.00
2294;BME280;1155;42.644;23.264;2023-04-23T01:57:41;60146.72;;;-140.67;100.00
2294;BME280;1155;42.644;23.264;2023-04-23T02:00:09;60148.75;;;-140.67;100.00
2294;BME280;1155;42.644;23.264;2023-04-23T02:02:37;60136.47;;;-140.67;100.00
2294;BME280;1155;42.644;23.264;2023-04-23T02:05:09;60124.19;;;-140.67;100.00
2294;BME280;1155;42.644;23.264;2023-04-23T02:07:37;60150.81;;;-140.67;100.00
2294;BME280;1155;42.644;23.264;2023-04-23T02:10:05;60118.03;;;-140.67;100.00
2294;BME280;1155;42.644;23.264;2023-04-23T02:12:32;60140.56;;;-140.67;100.00
2294;BME280;1155;42.644;23.264;2023-04-23T02:15:00;60140.56;;;-140.67;100.00
2294;BME280;1155;42.644;23.264;2023-04-23T02:17:27;60146.72;;;-140.67;100.00
2294;BME280;1155;42.644;23.264;2023-04-23T02:19:55;60161.03;;;-140.67;100.00
2294;BME280;1155;42.644;23.264;2023-04-23T02:22:22;60163.09;;;-140.67;100.00
2294;BME280;1155;42.644;23.264;2023-04-23T02:24:51;60163.09;;;-140.67;100.00
2294;BME280;1155;42.644;23.264;2023-04-23T02:27:18;60130.31;;;-140.67;100.00
2294;BME280;1155;42.644;23.264;2023-04-23T02:29:45;60138.50;;;-140.67;100.00
2294;BME280;1155;42.644;23.264;2023-04-23T02:32:13;60130.31;;;-140.67;100.00
2294;BME280;1155;42.644;23.264;2023-04-23T02:34:40;60152.84;;;-140.67;100.00
2294;BME280;1155;42.644;23.264;2023-04-23T02:37:07;60126.22;;;-140.67;100.00
2294;BME280;1155;42.644;23.264;2023-04-23T02:39:34;60134.41;;;-140.67;100.00
2294;BME280;1155;42.644;23.264;2023-04-23T02:42:03;60163.09;;;-140.67;100.00
2294;BME280;1155;42.644;23.264;2023-04-23T02:44:30;60113.94;;;-140.67;100.00
2294;BME280;1155;42.644;23.264;2023-04-23T02:46:56;60144.66;;;-140.67;100.00
2294;BME280;1155;42.644;23.264;2023-04-23T02:49:25;60140.56;;;-140.67;100.00
2294;BME280;1155;42.644;23.264;2023-04-23T02:51:52;60146.72;;;-140.67;100.00
2294;BME280;1155;42.644;23.264;2023-04-23T02:54:18;60136.47;;;-140.67;100.00
2294;BME280;1155;42.644;23.264;2023-04-23T02:56:45;60154.91;;;-140.67;100.00
2294;BME280;1155;42.644;23.264;2023-04-23T02:59:12;60148.75;;;-140.67;100.00
2294;BME280;1155;42.644;23.264;2023-04-23T03:01:39;60116.00;;;-140.67;100.00
2294;BME280;1155;42.644;23.264;2023-04-23T03:04:06;60156.94;;;-140.67;100.00
2294;BME280;1155;42.644;23.264;2023-04-23T03:06:34;60156.94;;;-140.67;100.00
2294;BME280;1155;42.644;23.264;2023-04-23T03:09:01;60163.09;;;-140.67;100.00
2294;BME280;1155;42.644;23.264;2023-04-23T03:11:29;60152.84;;;-140.67;100.00
2294;BME280;1155;42.644;23.264;2023-04-23T03:13:55;60167.19;;;-140.67;100.00
2294;BME280;1155;42.644;23.264;2023-04-23T03:16:22;60144.66;;;-140.67;100.00
2294;BME280;1155;42.644;23.264;2023-04-23T03:18:49;60142.59;;;-140.67;100.00
2294;BME280;1155;42.644;23.264;2023-04-23T03:21:16;60144.66;;;-140.67;100.00
2294;BME280;1155;42.644;23.264;2023-04-23T03:23:44;60124.19;;;-140.67;100.00
2294;BME280;1155;42.644;23.264;2023-04-23T03:26:11;60154.91;;;-140.67;100.00
2294;BME280;1155;42.644;23.264;2023-04-23T03:28:39;60128.28;;;-140.67;100.00
2294;BME280;1155;42.644;23.264;2023-04-23T03:31:06;60152.84;;;-140.67;100.00
2294;BME280;1155;42.644;23.264;2023-04-23T03:33:33;60171.28;;;-140.67;100.00
2294;BME280;1155;42.644;23.264;2023-04-23T03:36:00;60154.91;;;-140.67;100.00
2294;BME280;1155;42.644;23.264;2023-04-23T03:38:27;60142.59;;;-140.67;100.00
2294;BME280;1155;42.644;23.264;2023-04-23T03:40:55;60150.81;;;-140.67;100.00
2294;BME280;1155;42.644;23.264;2023-04-23T03:43:22;60134.41;;;-140.67;100.00
2294;BME280;1155;42.644;23.264;2023-04-23T03:45:49;60126.22;;;-140.67;100.00
2294;BME280;1155;42.644;23.264;2023-04-23T03:48:16;60134.41;;;-140.67;100.00
2294;BME280;1155;42.644;23.264;2023-04-23T03:50:42;60132.38;;;-140.67;100.00
2294;BME280;1155;42.644;23.264;2023-04-23T03:53:09;60118.03;;;-140.67;100.00
2294;BME280;1155;42.644;23.264;2023-04-23T03:55:36;60138.50;;;-140.67;100.00
2294;BME280;1155;42.644;23.264;2023-04-23T03:58:04;60113.94;;;-140.67;100.00
2294;BME280;1155;42.644;23.264;2023-04-23T04:00:34;60146.72;;;-140.67;100.00
2294;BME280;1155;42.644;23.264;2023-04-23T04:03:01;60146.72;;;-140.67;100.00
2294;BME280;1155;42.644;23.264;2023-04-23T04:05:28;60161.03;;;-140.67;100.00
2294;BME280;1155;42.644;23.264;2023-04-23T04:07:55;60163.09;;;-140.67;100.00
2294;BME280;1155;42.644;23.264;2023-04-23T04:10:22;60144.66;;;-140.67;100.00
2294;BME280;1155;42.644;23.264;2023-04-23T04:12:48;60130.31;;;-140.67;100.00
2294;BME280;1155;42.644;23.264;2023-04-23T04:15:17;60146.72;;;-140.67;100.00
2294;BME280;1155;42.644;23.264;2023-04-23T04:17:45;60161.03;;;-140.67;100.00
2294;BME280;1155;42.644;23.264;2023-04-23T04:20:12;60179.47;;;-140.67;100.00
2294;BME280;1155;42.644;23.264;2023-04-23T04:22:39;60154.91;;;-140.67;100.00
2294;BME280;1155;42.644;23.264;2023-04-23T04:25:06;60161.03;;;-140.67;100.00
2294;BME280;1155;42.644;23.264;2023-04-23T04:27:34;60150.81;;;-140.67;100.00
2294;BME280;1155;42.644;23.264;2023-04-23T04:30:02;60154.91;;;-140.67;100.00
2294;BME280;1155;42.644;23.264;2023-04-23T04:32:31;60140.56;;;-140.67;100.00
2294;BME280;1155;42.644;23.264;2023-04-23T04:34:58;60167.19;;;-140.67;100.00
2294;BME280;1155;42.644;23.264;2023-04-23T04:37:25;60154.91;;;-140.67;100.00
2294;BME280;1155;42.644;23.264;2023-04-23T04:39:52;60177.41;;;-140.67;100.00
2294;BME280;1155;42.644;23.264;2023-04-23T04:42:19;60146.72;;;-140.67;100.00
2294;BME280;1155;42.644;23.264;2023-04-23T04:44:46;60150.81;;;-140.67;100.00
2294;BME280;1155;42.644;23.264;2023-04-23T04:47:13;60163.09;;;-140.67;100.00
2294;BME280;1155;42.644;23.264;2023-04-23T04:49:42;60167.19;;;-140.67;100.00
2294;BME280;1155;42.644;23.264;2023-04-23T04:52:09;60150.81;;;-140.67;100.00
2294;BME280;1155;42.644;23.264;2023-04-23T04:54:36;60159.00;;;-140.67;100.00
2294;BME280;1155;42.644;23.264;2023-04-23T04:57:03;60156.94;;;-140.67;100.00
2294;BME280;1155;42.644;23.264;2023-04-23T04:59:30;60175.38;;;-140.67;100.00
2294;BME280;1155;42.644;23.264;2023-04-23T05:01:57;60142.59;;;-140.67;100.00
2294;BME280;1155;42.644;23.264;2023-04-23T05:04:24;60136.47;;;-140.67;100.00
2294;BME280;1155;42.644;23.264;2023-04-23T05:06:53;60167.19;;;-140.67;100.00
2294;BME280;1155;42.644;23.264;2023-04-23T05:09:20;60173.31;;;-140.67;100.00
2294;BME280;1155;42.644;23.264;2023-04-23T05:11:46;60126.22;;;-140.67;100.00
2294;BME280;1155;42.644;23.264;2023-04-23T05:14:13;60150.81;;;-140.67;100.00
2294;BME280;1155;42.644;23.264;2023-04-23T05:16:42;60140.56;;;-140.67;100.00
2294;BME280;1155;42.644;23.264;2023-04-23T05:19:09;60146.72;;;-140.67;100.00
2294;BME280;1155;42.644;23.264;2023-04-23T05:21:36;60138.50;;;-140.67;100.00
2294;BME280;1155;42.644;23.264;2023-04-23T05:24:05;60159.00;;;-140.67;100.00
2294;BME280;1155;42.644;23.264;2023-04-23T05:26:32;60144.66;;;-140.67;100.00
2294;BME280;1155;42.644;23.264;2023-04-23T05:28:58;60150.81;;;-140.67;100.00
2294;BME280;1155;42.644;23.264;2023-04-23T05:31:25;60159.00;;;-140.67;100.00
2294;BME280;1155;42.644;23.264;2023-04-23T05:33:52;60142.59;;;-140.67;100.00
2294;BME280;1155;42.644;23.264;2023-04-23T05:36:19;60136.47;;;-140.67;100.00
2294;BME280;1155;42.644;23.264;2023-04-23T05:38:46;60144.66;;;-140.67;100.00
2294;BME280;1155;42.644;23.264;2023-04-23T05:41:14;60146.72;;;-140.67;100.00
2294;BME280;1155;42.644;23.264;2023-04-23T05:43:41;60154.91;;;-140.67;100.00
2294;BME280;1155;42.644;23.264;2023-04-23T05:46:08;60159.00;;;-140.67;100.00
2294;BME280;1155;42.644;23.264;2023-04-23T05:48:35;60142.59;;;-140.67;100.00
2294;BME280;1155;42.644;23.264;2023-04-23T05:51:02;60142.59;;;-140.67;100.00
2294;BME280;1155;42.644;23.264;2023-04-23T05:53:29;60126.22;;;-140.67;100.00
2294;BME280;1155;42.644;23.264;2023-04-23T05:55:56;60154.91;;;-140.67;100.00
2294;BME280;1155;42.644;23.264;2023-04-23T05:58:24;60181.50;;;-140.67;100.00
2294;BME280;1155;42.644;23.264;2023-04-23T06:00:51;60142.59;;;-140.67;100.00
2294;BME280;1155;42.644;23.264;2023-04-23T06:03:18;60159.00;;;-140.67;100.00
2294;BME280;1155;42.644;23.264;2023-04-23T06:05:45;60146.72;;;-140.67;100.00
2294;BME280;1155;42.644;23.264;2023-04-23T06:08:12;60154.91;;;-140.67;100.00
2294;BME280;1155;42.644;23.264;2023-04-23T06:10:39;60142.59;;;-140.67;100.00
2294;BME280;1155;42.644;23.264;2023-04-23T06:13:06;60138.50;;;-140.67;100.00
2294;BME280;1155;42.644;23.264;2023-04-23T06:15:34;60140.56;;;-140.67;100.00
2294;BME280;1155;42.644;23.264;2023-04-23T06:18:01;60154.91;;;-140.67;100.00
2294;BME280;1155;42.644;23.264;2023-04-23T06:20:28;60136.47;;;-140.67;100.00
2294;BME280;1155;42.644;23.264;2023-04-23T06:22:56;60167.19;;;-140.67;100.00
2294;BME280;1155;42.644;23.264;2023-04-23T06:25:23;60167.19;;;-140.67;100.00
2294;BME280;1155;42.644;23.264;2023-04-23T06:27:50;60142.59;;;-140.67;100.00
2294;BME280;1155;42.644;23.264;2023-04-23T06:30:17;60146.72;;;-140.67;100.00
2294;BME280;1155;42.644;23.264;2023-04-23T06:32:45;60183.56;;;-140.67;100.00
2294;BME280;1155;42.644;23.264;2023-04-23T06:35:12;60144.66;;;-140.67;100.00
2294;BME280;1155;42.644;23.264;2023-04-23T06:37:38;60130.31;;;-140.67;100.00
2294;BME280;1155;42.644;23.264;2023-04-23T06:40:06;60156.94;;;-140.67;100.00
2294;BME280;1155;42.644;23.264;2023-04-23T06:42:33;60152.84;;;-140.67;100.00
2294;BME280;1155;42.644;23.264;2023-04-23T06:45:00;60142.59;;;-140.67;100.00
2294;BME280;1155;42.644;23.264;2023-04-23T06:47:28;60163.09;;;-140.67;100.00
2294;BME280;1155;42.644;23.264;2023-04-23T06:49:57;60159.00;;;-140.67;100.00
2294;BME280;1155;42.644;23.264;2023-04-23T06:52:24;60156.94;;;-140.67;100.00
2294;BME280;1155;42.644;23.264;2023-04-23T06:54:51;60167.19;;;-140.67;100.00
2294;BME280;1155;42.644;23.264;2023-04-23T06:57:17;60161.03;;;-140.67;100.00
2294;BME280;1155;42.644;23.264;2023-04-23T06:59:44;60134.41;;;-140.67;100.00
2294;BME280;1155;42.644;23.264;2023-04-23T07:02:11;60167.19;;;-140.67;100.00
2294;BME280;1155;42.644;23.264;2023-04-23T07:04:38;60148.75;;;-140.67;100.00
2294;BME280;1155;42.644;23.264;2023-04-23T07:07:06;60148.75;;;-140.67;100.00
2294;BME280;1155;42.644;23.264;2023-04-23T07:09:33;60167.19;;;-140.67;100.00
2294;BME280;1155;42.644;23.264;2023-04-23T07:12:00;60148.75;;;-140.67;100.00
2294;BME280;1155;42.644;23.264;2023-04-23T07:14:27;60138.50;;;-140.67;100.00
2294;BME280;1155;42.644;23.264;2023-04-23T07:16:54;60152.84;;;-140.67;100.00
2294;BME280;1155;42.644;23.264;2023-04-23T07:19:21;60167.19;;;-140.67;100.00
2294;BME280;1155;42.644;23.264;2023-04-23T07:21:48;60150.81;;;-140.67;100.00
2294;BME280;1155;42.644;23.264;2023-04-23T07:24:16;60152.84;;;-140.67;100.00
2294;BME280;1155;42.644;23.264;2023-04-23T07:26:44;60130.31;;;-140.67;100.00
2294;BME280;1155;42.644;23.264;2023-04-23T07:29:11;60173.31;;;-140.67;100.00
2294;BME280;1155;42.644;23.264;2023-04-23T07:31:38;60156.94;;;-140.67;92.24
2294;BME280;1155;42.644;23.264;2023-04-23T07:34:07;60163.09;;;-140.67;92.75
2294;BME280;1155;42.644;23.264;2023-04-23T07:36:34;60150.81;;;-140.67;97.03
2294;BME280;1155;42.644;23.264;2023-04-23T07:39:01;60163.09;;;-140.67;83.92
2294;BME280;1155;42.644;23.264;2023-04-23T07:41:30;60185.59;;;-140.67;79.80
2294;BME280;1155;42.644;23.264;2023-04-23T07:43:57;60183.56;;;-140.67;76.47
2294;BME280;1155;42.644;23.264;2023-04-23T07:46:23;60197.91;;;-140.67;70.58
2294;BME280;1155;42.644;23.264;2023-04-23T07:48:50;60167.19;;;-140.67;72.57
2294;BME280;1155;42.644;23.264;2023-04-23T07:51:18;60152.84;;;-140.67;68.26
2294;BME280;1155;42.644;23.264;2023-04-23T07:53:46;60171.28;;;-140.67;66.78
2294;BME280;1155;42.644;23.264;2023-04-23T07:56:15;60156.94;;;-140.67;65.88
2294;BME280;1155;42.644;23.264;2023-04-23T07:58:43;60171.28;;;-140.67;64.49
2294;BME280;1155;42.644;23.264;2023-04-23T08:01:10;60146.72;;;-140.67;64.08
2294;BME280;1155;42.644;23.264;2023-04-23T08:03:37;60142.59;;;-140.67;73.92
2294;BME280;1155;42.644;23.264;2023-04-23T08:06:05;60187.66;;;-140.67;60.70
2294;BME280;1155;42.644;23.264;2023-04-23T08:08:31;60148.75;;;-140.67;60.66
2294;BME280;1155;42.644;23.264;2023-04-23T08:10:58;60159.00;;;-140.67;65.07
2294;BME280;1155;42.644;23.264;2023-04-23T08:13:25;60171.28;;;-140.67;66.93
2294;BME280;1155;42.644;23.264;2023-04-23T08:15:53;60150.81;;;-140.67;68.33
2294;BME280;1155;42.644;23.264;2023-04-23T08:18:20;60150.81;;;-140.67;65.50
2294;BME280;1155;42.644;23.264;2023-04-23T08:20:47;60142.59;;;-140.67;67.17
2294;BME280;1155;42.644;23.264;2023-04-23T08:23:15;60156.94;;;-140.67;61.64
2294;BME280;1155;42.644;23.264;2023-04-23T08:25:42;60187.66;;;-140.67;56.07
2294;BME280;1155;42.644;23.264;2023-04-23T08:28:08;60171.28;;;-140.67;54.97
2294;BME280;1155;42.644;23.264;2023-04-23T08:30:35;60175.38;;;-140.67;57.13
2294;BME280;1155;42.644;23.264;2023-04-23T08:33:03;60177.41;;;-140.67;58.04
2294;BME280;1155;42.644;23.264;2023-04-23T08:35:30;60167.19;;;-140.67;59.54
2294;BME280;1155;42.644;23.264;2023-04-23T08:37:57;60167.19;;;-140.67;58.21
2294;BME280;1155;42.644;23.264;2023-04-23T08:40:25;60154.91;;;-140.67;54.63
2294;BME280;1155;42.644;23.264;2023-04-23T08:42:57;60134.41;;;-140.67;57.43
2294;BME280;1155;42.644;23.264;2023-04-23T08:45:24;60126.22;;;-140.67;62.23
2294;BME280;1155;42.644;23.264;2023-04-23T08:47:52;60163.09;;;-140.67;57.69
2294;BME280;1155;42.644;23.264;2023-04-23T08:50:25;60177.41;;;-140.67;53.42
2294;BME280;1155;42.644;23.264;2023-04-23T08:52:56;60199.94;;;-140.67;52.67
2294;BME280;1155;42.644;23.264;2023-04-23T08:55:23;60183.56;;;-140.67;49.56
2294;BME280;1155;42.644;23.264;2023-04-23T08:57:51;60177.41;;;-140.67;54.74
2294;BME280;1155;42.644;23.264;2023-04-23T09:00:19;60171.28;;;-140.67;48.38
2294;BME280;1155;42.644;23.264;2023-04-23T09:02:49;60204.03;;;-140.67;45.25
2294;BME280;1155;42.644;23.264;2023-04-23T09:05:16;60167.19;;;-140.67;43.91
2294;BME280;1155;42.644;23.264;2023-04-23T09:07:44;60228.63;;;-140.67;40.97
2294;BME280;1155;42.644;23.264;2023-04-23T09:10:12;60204.03;;;-140.67;40.28
2294;BME280;1155;42.644;23.264;2023-04-23T09:12:40;60187.66;;;-140.67;39.12
2294;BME280;1155;42.644;23.264;2023-04-23T09:15:08;60202.00;;;-140.67;38.11
2294;BME280;1155;42.644;23.264;2023-04-23T09:17:39;60183.56;;;-140.67;38.79
2294;BME280;1155;42.644;23.264;2023-04-23T09:20:07;60159.00;;;-140.67;41.47
2294;BME280;1155;42.644;23.264;2023-04-23T09:22:39;60171.28;;;-140.67;41.78
2294;BME280;1155;42.644;23.264;2023-04-23T09:25:09;60159.00;;;-140.67;41.06
2294;BME280;1155;42.644;23.264;2023-04-23T09:27:36;60183.56;;;-140.67;40.65
2294;BME280;1155;42.644;23.264;2023-04-23T09:30:04;60204.03;;;-140.67;37.75
2294;BME280;1155;42.644;23.264;2023-04-23T09:32:32;60222.47;;;-140.67;36.04
2294;BME280;1155;42.644;23.264;2023-04-23T09:35:02;60210.19;;;-140.67;36.12
2294;BME280;1155;42.644;23.264;2023-04-23T09:37:30;60222.47;;;-140.67;37.29
2294;BME280;1155;42.644;23.264;2023-04-23T09:40:00;60224.53;;;-140.67;34.92
2294;BME280;1155;42.644;23.264;2023-04-23T09:42:36;60199.94;;;-140.67;36.62
2294;BME280;1155;42.644;23.264;2023-04-23T09:45:04;60187.66;;;-140.67;36.34
2294;BME280;1155;42.644;23.264;2023-04-23T09:47:32;60179.47;;;-140.67;35.09
2294;BME280;1155;42.644;23.264;2023-04-23T09:50:00;60247.03;;;-140.67;35.25
2294;BME280;1155;42.644;23.264;2023-04-23T09:52:30;60212.22;;;-140.67;36.68
2294;BME280;1155;42.644;23.264;2023-04-23T09:54:57;60171.28;;;-140.67;35.56
2294;BME280;1155;42.644;23.264;2023-04-23T09:57:24;60238.84;;;-140.67;34.82
2294;BME280;1155;42.644;23.264;2023-04-23T09:59:55;60185.59;;;-140.67;34.07
2294;BME280;1155;42.644;23.264;2023-04-23T10:02:26;60208.13;;;-140.67;35.14
2294;BME280;1155;42.644;23.264;2023-04-23T10:04:53;60232.72;;;-140.67;34.17
2294;BME280;1155;42.644;23.264;2023-04-23T10:07:21;60212.22;;;-140.67;32.76
2294;BME280;1155;42.644;23.264;2023-04-23T10:09:48;60249.09;;;-140.67;32.50
2294;BME280;1155;42.644;23.264;2023-04-23T10:12:16;60253.19;;;-140.67;30.27
2294;BME280;1155;42.644;23.264;2023-04-23T10:14:43;60224.53;;;-140.67;30.27
2294;BME280;1155;42.644;23.264;2023-04-23T10:17:15;60257.28;;;-140.67;30.37
2294;BME280;1155;42.644;23.264;2023-04-23T10:19:43;60269.56;;;-140.67;32.01
2294;BME280;1155;42.644;23.264;2023-04-23T10:22:12;60253.19;;;-140.67;28.56
2294;BME280;1155;42.644;23.264;2023-04-23T10:24:44;60253.19;;;-140.67;28.95
2294;BME280;1155;42.644;23.264;2023-04-23T10:27:14;60261.38;;;-140.67;28.82
2294;BME280;1155;42.644;23.264;2023-04-23T10:29:41;60253.19;;;-140.67;28.07
2294;BME280;1155;42.644;23.264;2023-04-23T10:32:09;60257.28;;;-140.67;29.64
2294;BME280;1155;42.644;23.264;2023-04-23T10:34:38;60257.28;;;-140.67;28.66
2294;BME280;1155;42.644;23.264;2023-04-23T10:37:06;60179.47;;;-140.67;30.13
2294;BME280;1155;42.644;23.264;2023-04-23T10:39:34;60210.19;;;-140.67;30.43
2294;BME280;1155;42.644;23.264;2023-04-23T10:42:02;60226.56;;;-140.67;31.71
2294;BME280;1155;42.644;23.264;2023-04-23T10:44:35;60222.47;;;-140.67;30.30
2294;BME280;1155;42.644;23.264;2023-04-23T10:47:03;60208.13;;;-140.67;29.02
2294;BME280;1155;42.644;23.264;2023-04-23T10:49:31;60249.09;;;-140.67;28.51
2294;BME280;1155;42.644;23.264;2023-04-23T10:52:01;60222.47;;;-140.67;29.98
2294;BME280;1155;42.644;23.264;2023-04-23T10:54:29;60240.91;;;-140.67;30.13
2294;BME280;1155;42.644;23.264;2023-04-23T10:56:58;60267.53;;;-140.67;28.44
2294;BME280;1155;42.644;23.264;2023-04-23T10:59:26;60210.19;;;-140.67;28.16
2294;BME280;1155;42.644;23.264;2023-04-23T11:01:55;60245.00;;;-140.67;29.71
2294;BME280;1155;42.644;23.264;2023-04-23T11:04:24;60261.38;;;-140.67;28.85
2294;BME280;1155;42.644;23.264;2023-04-23T11:06:56;60253.19;;;-140.67;27.25
2294;BME280;1155;42.644;23.264;2023-04-23T11:09:36;60277.75;;;-140.67;27.79
2294;BME280;1155;42.644;23.264;2023-04-23T11:12:06;60263.44;;;-140.67;27.51
2294;BME280;1155;42.644;23.264;2023-04-23T11:14:42;60238.84;;;-140.67;28.26
2294;BME280;1155;42.644;23.264;2023-04-23T11:17:12;60263.44;;;-140.67;26.56
2294;BME280;1155;42.644;23.264;2023-04-23T11:19:41;60277.75;;;-140.67;27.50
2294;BME280;1155;42.644;23.264;2023-04-23T11:22:33;60273.66;;;-140.67;25.56
2294;BME280;1155;42.644;23.264;2023-04-23T11:25:02;60255.22;;;-140.67;24.74
2294;BME280;1155;42.644;23.264;2023-04-23T11:27:30;60306.44;;;-140.67;24.15
2294;BME280;1155;42.644;23.264;2023-04-23T11:29:57;60281.84;;;-140.67;24.73
2294;BME280;1155;42.644;23.264;2023-04-23T11:32:26;60294.13;;;-140.67;23.54
2294;BME280;1155;42.644;23.264;2023-04-23T11:34:54;60294.13;;;-140.67;25.00
2294;BME280;1155;42.644;23.264;2023-04-23T11:37:23;60322.81;;;-140.67;23.99
2294;BME280;1155;42.644;23.264;2023-04-23T11:39:50;60314.63;;;-140.67;24.58
2294;BME280;1155;42.644;23.264;2023-04-23T11:42:18;60285.94;;;-140.67;22.27
2294;BME280;1155;42.644;23.264;2023-04-23T11:44:46;60288.00;;;-140.67;24.36
2294;BME280;1155;42.644;23.264;2023-04-23T11:47:14;60294.13;;;-140.67;24.47
2294;BME280;1155;42.644;23.264;2023-04-23T11:49:43;60302.34;;;-140.67;25.02
2294;BME280;1155;42.644;23.264;2023-04-23T11:52:10;60302.34;;;-140.67;24.87
2294;BME280;1155;42.644;23.264;2023-04-23T11:54:39;60355.56;;;-140.67;21.42
2294;BME280;1155;42.644;23.264;2023-04-23T11:57:06;60423.16;;;-140.67;22.33
2294;BME280;1155;42.644;23.264;2023-04-23T11:59:35;60427.25;;;-140.67;16.95
2294;BME280;1155;42.644;23.264;2023-04-23T12:02:02;60410.88;;;-140.67;19.44
2294;BME280;1155;42.644;23.264;2023-04-23T12:04:30;60505.06;;;-140.67;18.63
2294;BME280;1155;42.644;23.264;2023-04-23T12:06:58;60523.50;;;-140.67;16.21
2294;BME280;1155;42.644;23.264;2023-04-23T12:09:26;60515.31;;;-140.67;17.60
2294;BME280;1155;42.644;23.264;2023-04-23T12:11:53;60447.72;;;-140.67;16.94
2294;BME280;1155;42.644;23.264;2023-04-23T12:14:26;60394.50;;;-140.67;17.88
2294;BME280;1155;42.644;23.264;2023-04-23T12:16:57;60435.44;;;-140.67;17.73
2294;BME280;1155;42.644;23.264;2023-04-23T12:19:28;60445.69;;;-140.67;16.94
2294;BME280;1155;42.644;23.264;2023-04-23T12:21:56;60427.25;;;-140.67;18.61
2294;BME280;1155;42.644;23.264;2023-04-23T12:24:24;60425.19;;;-140.67;18.80
2294;BME280;1155;42.644;23.264;2023-04-23T12:26:52;60363.78;;;-140.67;18.39
2294;BME280;1155;42.644;23.264;2023-04-23T12:29:20;60339.19;;;-140.67;18.24
2294;BME280;1155;42.644;23.264;2023-04-23T12:31:48;60310.53;;;-140.67;18.88
2294;BME280;1155;42.644;23.264;2023-04-23T12:34:18;60269.56;;;-140.67;19.25
2294;BME280;1155;42.644;23.264;2023-04-23T12:36:47;60302.34;;;-140.67;18.87
2294;BME280;1155;42.644;23.264;2023-04-23T12:39:19;60245.00;;;-140.67;19.04
2294;BME280;1155;42.644;23.264;2023-04-23T12:41:48;60251.13;;;-140.67;20.44
2294;BME280;1155;42.644;23.264;2023-04-23T12:44:15;60251.13;;;-140.67;20.24
2294;BME280;1155;42.644;23.264;2023-04-23T12:46:42;60222.47;;;-140.67;20.15